sensor_id;sensor_type;location;lat;lon;timestamp;P1;durP1;ratioP1;P2;durP2;ratioP2
77724;SDS011;66892;53.236;6.550;2023-03-03T00:02:18;5.55;;;2.65;;
77724;SDS011;66892;53.236;6.550;2023-03-03T00:04:44;6.47;;;2.60;;
77724;SDS011;66892;53.236;6.550;2023-03-03T00:07:10;9.45;;;3.45;;
77724;SDS011;66892;53.236;6.550;2023-03-03T00:09:38;7.20;;;2.85;;
77724;SDS011;66892;53.236;6.550;2023-03-03T00:12:12;6.85;;;2.38;;
77724;SDS011;66892;53.236;6.550;2023-03-03T00:14:47;6.32;;;2.72;;
77724;SDS011;66892;53.236;6.550;2023-03-03T00:17:14;6.35;;;2.50;;
77724;SDS011;66892;53.236;6.550;2023-03-03T00:19:46;6.03;;;2.67;;
77724;SDS011;66892;53.236;6.550;2023-03-03T00:22:13;4.95;;;2.05;;
77724;SDS011;66892;53.236;6.550;2023-03-03T00:24:48;5.32;;;2.40;;
77724;SDS011;66892;53.236;6.550;2023-03-03T00:27:16;4.55;;;2.10;;
77724;SDS011;66892;53.236;6.550;2023-03-03T00:29:50;4.68;;;2.03;;
77724;SDS011;66892;53.236;6.550;2023-03-03T00:32:23;3.38;;;1.98;;
77724;SDS011;66892;53.236;6.550;2023-03-03T00:34:51;4.95;;;2.08;;
77724;SDS011;66892;53.236;6.550;2023-03-03T00:37:26;4.88;;;2.10;;
77724;SDS011;66892;53.236;6.550;2023-03-03T00:39:57;6.20;;;2.60;;
77724;SDS011;66892;53.236;6.550;2023-03-03T00:42:30;3.45;;;2.05;;
77724;SDS011;66892;53.236;6.550;2023-03-03T00:45:00;3.80;;;2.08;;
77724;SDS011;66892;53.236;6.550;2023-03-03T00:47:27;4.72;;;2.55;;
77724;SDS011;66892;53.236;6.550;2023-03-03T00:49:58;5.50;;;2.33;;
77724;SDS011;66892;53.236;6.550;2023-03-03T00:52:44;4.97;;;2.08;;
77724;SDS011;66892;53.236;6.550;2023-03-03T00:55:24;6.05;;;2.33;;
77724;SDS011;66892;53.236;6.550;2023-03-03T00:57:52;6.30;;;2.78;;
77724;SDS011;66892;53.236;6.550;2023-03-03T01:00:18;3.80;;;2.03;;
77724;SDS011;66892;53.236;6.550;2023-03-03T01:02:45;8.63;;;2.05;;
77724;SDS011;66892;53.236;6.550;2023-03-03T01:05:13;3.70;;;1.92;;
77724;SDS011;66892;53.236;6.550;2023-03-03T01:07:41;4.53;;;2.70;;
77724;SDS011;66892;53.236;6.550;2023-03-03T01:10:07;7.05;;;2.22;;
77724;SDS011;66892;53.236;6.550;2023-03-03T01:12:36;5.22;;;2.45;;
77724;SDS011;66892;53.236;6.550;2023-03-03T01:15:03;6.95;;;2.65;;
77724;SDS011;66892;53.236;6.550;2023-03-03T01:17:30;5.05;;;2.15;;
77724;SDS011;66892;53.236;6.550;2023-03-03T01:19:56;5.88;;;2.50;;
77724;SDS011;66892;53.236;6.550;2023-03-03T01:22:22;8.68;;;2.33;;
77724;SDS011;66892;53.236;6.550;2023-03-03T01:24:48;4.55;;;2.42;;
77724;SDS011;66892;53.236;6.550;2023-03-03T01:27:14;4.18;;;1.95;;
77724;SDS011;66892;53.236;6.550;2023-03-03T01:29:42;3.60;;;1.92;;
77724;SDS011;66892;53.236;6.550;2023-03-03T01:32:08;4.85;;;2.60;;
77724;SDS011;66892;53.236;6.550;2023-03-03T01:34:34;5.03;;;1.88;;
77724;SDS011;66892;53.236;6.550;2023-03-03T01:37:00;7.22;;;2.20;;
77724;SDS011;66892;53.236;6.550;2023-03-03T01:39:26;5.97;;;1.77;;
77724;SDS011;66892;53.236;6.550;2023-03-03T01:41:52;3.90;;;1.73;;
77724;SDS011;66892;53.236;6.550;2023-03-03T01:44:18;3.83;;;1.63;;
77724;SDS011;66892;53.236;6.550;2023-03-03T01:46:52;3.88;;;1.83;;
77724;SDS011;66892;53.236;6.550;2023-03-03T01:49:21;3.67;;;2.13;;
77724;SDS011;66892;53.236;6.550;2023-03-03T01:51:51;3.63;;;2.10;;
77724;SDS011;66892;53.236;6.550;2023-03-03T01:54:21;3.60;;;1.45;;
77724;SDS011;66892;53.236;6.550;2023-03-03T01:56:52;4.53;;;1.83;;
77724;SDS011;66892;53.236;6.550;2023-03-03T01:59:22;2.72;;;1.63;;
77724;SDS011;66892;53.236;6.550;2023-03-03T02:01:53;3.83;;;1.40;;
77724;SDS011;66892;53.236;6.550;2023-03-03T02:04:19;2.80;;;1.85;;
77724;SDS011;66892;53.236;6.550;2023-03-03T02:06:48;2.72;;;1.65;;
77724;SDS011;66892;53.236;6.550;2023-03-03T02:09:17;2.60;;;1.80;;
77724;SDS011;66892;53.236;6.550;2023-03-03T02:11:51;2.20;;;1.67;;
77724;SDS011;66892;53.236;6.550;2023-03-03T02:14:20;2.22;;;1.42;;
77724;SDS011;66892;53.236;6.550;2023-03-03T02:16:46;3.97;;;2.03;;
77724;SDS011;66892;53.236;6.550;2023-03-03T02:19:16;2.40;;;1.70;;
77724;SDS011;66892;53.236;6.550;2023-03-03T02:21:49;2.42;;;1.40;;
77724;SDS011;66892;53.236;6.550;2023-03-03T02:24:16;2.10;;;1.25;;
77724;SDS011;66892;53.236;6.550;2023-03-03T02:26:51;2.13;;;1.30;;
77724;SDS011;66892;53.236;6.550;2023-03-03T02:29:17;2.17;;;1.30;;
77724;SDS011;66892;53.236;6.550;2023-03-03T02:31:43;2.42;;;1.40;;
77724;SDS011;66892;53.236;6.550;2023-03-03T02:34:09;2.40;;;1.52;;
77724;SDS011;66892;53.236;6.550;2023-03-03T02:36:36;2.13;;;1.65;;
77724;SDS011;66892;53.236;6.550;2023-03-03T02:39:04;2.10;;;1.40;;
77724;SDS011;66892;53.236;6.550;2023-03-03T02:41:34;2.47;;;1.83;;
77724;SDS011;66892;53.236;6.550;2023-03-03T02:44:06;2.25;;;1.30;;
77724;SDS011;66892;53.236;6.550;2023-03-03T02:46:34;2.45;;;1.48;;
77724;SDS011;66892;53.236;6.550;2023-03-03T02:49:02;2.38;;;1.52;;
77724;SDS011;66892;53.236;6.550;2023-03-03T02:51:29;2.45;;;1.50;;
77724;SDS011;66892;53.236;6.550;2023-03-03T02:53:55;2.38;;;1.52;;
77724;SDS011;66892;53.236;6.550;2023-03-03T02:56:22;2.30;;;1.60;;
77724;SDS011;66892;53.236;6.550;2023-03-03T02:58:48;2.22;;;1.45;;
77724;SDS011;66892;53.236;6.550;2023-03-03T03:01:16;2.03;;;1.30;;
77724;SDS011;66892;53.236;6.550;2023-03-03T03:03:42;1.95;;;1.20;;
77724;SDS011;66892;53.236;6.550;2023-03-03T03:06:08;2.17;;;1.40;;
77724;SDS011;66892;53.236;6.550;2023-03-03T03:08:34;2.15;;;1.33;;
77724;SDS011;66892;53.236;6.550;2023-03-03T03:11:00;2.28;;;1.50;;
77724;SDS011;66892;53.236;6.550;2023-03-03T03:13:27;2.15;;;1.25;;
77724;SDS011;66892;53.236;6.550;2023-03-03T03:15:53;2.25;;;1.58;;
77724;SDS011;66892;53.236;6.550;2023-03-03T03:18:20;2.03;;;1.33;;
77724;SDS011;66892;53.236;6.550;2023-03-03T03:20:46;2.30;;;1.55;;
77724;SDS011;66892;53.236;6.550;2023-03-03T03:23:12;2.03;;;1.30;;
77724;SDS011;66892;53.236;6.550;2023-03-03T03:25:38;2.58;;;1.30;;
77724;SDS011;66892;53.236;6.550;2023-03-03T03:28:10;2.15;;;1.30;;
77724;SDS011;66892;53.236;6.550;2023-03-03T03:30:37;2.25;;;1.40;;
77724;SDS011;66892;53.236;6.550;2023-03-03T03:33:03;1.85;;;1.20;;
77724;SDS011;66892;53.236;6.550;2023-03-03T03:35:30;2.33;;;1.33;;
77724;SDS011;66892;53.236;6.550;2023-03-03T03:37:57;2.22;;;1.33;;
77724;SDS011;66892;53.236;6.550;2023-03-03T03:40:23;1.67;;;1.25;;
77724;SDS011;66892;53.236;6.550;2023-03-03T03:42:51;2.05;;;1.33;;
77724;SDS011;66892;53.236;6.550;2023-03-03T03:45:17;1.88;;;1.20;;
77724;SDS011;66892;53.236;6.550;2023-03-03T03:47:43;2.10;;;1.30;;
77724;SDS011;66892;53.236;6.550;2023-03-03T03:50:10;2.40;;;1.50;;
77724;SDS011;66892;53.236;6.550;2023-03-03T03:52:37;2.10;;;1.40;;
77724;SDS011;66892;53.236;6.550;2023-03-03T03:55:04;2.15;;;1.23;;
77724;SDS011;66892;53.236;6.550;2023-03-03T03:57:30;2.15;;;1.33;;
77724;SDS011;66892;53.236;6.550;2023-03-03T03:59:56;2.20;;;1.35;;
77724;SDS011;66892;53.236;6.550;2023-03-03T04:02:22;2.15;;;1.30;;
77724;SDS011;66892;53.236;6.550;2023-03-03T04:04:48;2.10;;;1.20;;
77724;SDS011;66892;53.236;6.550;2023-03-03T04:07:15;2.05;;;1.40;;
77724;SDS011;66892;53.236;6.550;2023-03-03T04:09:42;2.22;;;1.58;;
77724;SDS011;66892;53.236;6.550;2023-03-03T04:12:08;2.28;;;1.50;;
77724;SDS011;66892;53.236;6.550;2023-03-03T04:14:34;1.90;;;1.20;;
77724;SDS011;66892;53.236;6.550;2023-03-03T04:17:00;1.63;;;1.05;;
77724;SDS011;66892;53.236;6.550;2023-03-03T04:19:26;1.90;;;1.20;;
77724;SDS011;66892;53.236;6.550;2023-03-03T04:21:52;2.25;;;1.60;;
77724;SDS011;66892;53.236;6.550;2023-03-03T04:24:18;1.92;;;1.20;;
77724;SDS011;66892;53.236;6.550;2023-03-03T04:26:46;1.92;;;1.27;;
77724;SDS011;66892;53.236;6.550;2023-03-03T04:29:12;2.10;;;1.20;;
77724;SDS011;66892;53.236;6.550;2023-03-03T04:31:38;2.42;;;1.40;;
77724;SDS011;66892;53.236;6.550;2023-03-03T04:34:04;1.85;;;1.23;;
77724;SDS011;66892;53.236;6.550;2023-03-03T04:36:30;1.83;;;1.13;;
77724;SDS011;66892;53.236;6.550;2023-03-03T04:38:56;1.55;;;1.05;;
77724;SDS011;66892;53.236;6.550;2023-03-03T04:41:22;2.10;;;1.30;;
77724;SDS011;66892;53.236;6.550;2023-03-03T04:43:49;2.17;;;1.40;;
77724;SDS011;66892;53.236;6.550;2023-03-03T04:46:15;1.83;;;1.20;;
77724;SDS011;66892;53.236;6.550;2023-03-03T04:48:41;2.00;;;1.23;;
77724;SDS011;66892;53.236;6.550;2023-03-03T04:51:07;1.92;;;1.25;;
77724;SDS011;66892;53.236;6.550;2023-03-03T04:53:33;2.17;;;1.30;;
77724;SDS011;66892;53.236;6.550;2023-03-03T04:56:01;2.05;;;1.25;;
77724;SDS011;66892;53.236;6.550;2023-03-03T04:58:27;1.95;;;1.63;;
77724;SDS011;66892;53.236;6.550;2023-03-03T05:00:55;1.70;;;1.05;;
77724;SDS011;66892;53.236;6.550;2023-03-03T05:03:22;1.90;;;1.30;;
77724;SDS011;66892;53.236;6.550;2023-03-03T05:05:48;2.05;;;1.45;;
77724;SDS011;66892;53.236;6.550;2023-03-03T05:08:15;1.90;;;1.23;;
77724;SDS011;66892;53.236;6.550;2023-03-03T05:10:41;1.90;;;1.30;;
77724;SDS011;66892;53.236;6.550;2023-03-03T05:13:07;1.88;;;1.20;;
77724;SDS011;66892;53.236;6.550;2023-03-03T05:15:34;2.00;;;1.30;;
77724;SDS011;66892;53.236;6.550;2023-03-03T05:18:01;2.03;;;1.25;;
77724;SDS011;66892;53.236;6.550;2023-03-03T05:20:27;1.80;;;1.13;;
77724;SDS011;66892;53.236;6.550;2023-03-03T05:22:53;2.10;;;1.42;;
77724;SDS011;66892;53.236;6.550;2023-03-03T05:25:19;2.10;;;1.40;;
77724;SDS011;66892;53.236;6.550;2023-03-03T05:27:46;1.90;;;1.30;;
77724;SDS011;66892;53.236;6.550;2023-03-03T05:30:12;2.20;;;1.40;;
77724;SDS011;66892;53.236;6.550;2023-03-03T05:32:38;2.28;;;1.60;;
77724;SDS011;66892;53.236;6.550;2023-03-03T05:35:06;1.92;;;1.33;;
77724;SDS011;66892;53.236;6.550;2023-03-03T05:37:32;2.00;;;1.30;;
77724;SDS011;66892;53.236;6.550;2023-03-03T05:39:58;2.03;;;1.10;;
77724;SDS011;66892;53.236;6.550;2023-03-03T05:42:24;1.60;;;1.00;;
77724;SDS011;66892;53.236;6.550;2023-03-03T05:44:50;2.28;;;1.35;;
77724;SDS011;66892;53.236;6.550;2023-03-03T05:47:16;2.10;;;1.33;;
77724;SDS011;66892;53.236;6.550;2023-03-03T05:49:42;2.30;;;1.40;;
77724;SDS011;66892;53.236;6.550;2023-03-03T05:52:10;1.48;;;1.00;;
77724;SDS011;66892;53.236;6.550;2023-03-03T05:54:36;2.15;;;1.38;;
77724;SDS011;66892;53.236;6.550;2023-03-03T05:57:02;1.77;;;1.13;;
77724;SDS011;66892;53.236;6.550;2023-03-03T05:59:28;1.77;;;1.13;;
77724;SDS011;66892;53.236;6.550;2023-03-03T06:01:55;2.13;;;1.40;;
77724;SDS011;66892;53.236;6.550;2023-03-03T06:04:21;1.70;;;1.15;;
77724;SDS011;66892;53.236;6.550;2023-03-03T06:06:47;1.95;;;1.40;;
77724;SDS011;66892;53.236;6.550;2023-03-03T06:09:14;1.75;;;1.13;;
77724;SDS011;66892;53.236;6.550;2023-03-03T06:11:40;2.00;;;1.30;;
77724;SDS011;66892;53.236;6.550;2023-03-03T06:14:06;2.17;;;1.48;;
77724;SDS011;66892;53.236;6.550;2023-03-03T06:16:32;2.35;;;1.30;;
77724;SDS011;66892;53.236;6.550;2023-03-03T06:18:58;1.85;;;1.17;;
77724;SDS011;66892;53.236;6.550;2023-03-03T06:21:25;2.33;;;1.50;;
77724;SDS011;66892;53.236;6.550;2023-03-03T06:23:51;2.53;;;1.60;;
77724;SDS011;66892;53.236;6.550;2023-03-03T06:26:19;2.60;;;1.63;;
77724;SDS011;66892;53.236;6.550;2023-03-03T06:28:45;2.38;;;1.60;;
77724;SDS011;66892;53.236;6.550;2023-03-03T06:31:11;2.53;;;1.48;;
77724;SDS011;66892;53.236;6.550;2023-03-03T06:33:37;2.67;;;1.73;;
77724;SDS011;66892;53.236;6.550;2023-03-03T06:36:03;3.22;;;2.30;;
77724;SDS011;66892;53.236;6.550;2023-03-03T06:38:29;2.20;;;1.30;;
77724;SDS011;66892;53.236;6.550;2023-03-03T06:40:55;2.13;;;1.38;;
77724;SDS011;66892;53.236;6.550;2023-03-03T06:43:23;2.60;;;1.67;;
77724;SDS011;66892;53.236;6.550;2023-03-03T06:45:49;2.25;;;1.40;;
77724;SDS011;66892;53.236;6.550;2023-03-03T06:48:15;2.03;;;1.52;;
77724;SDS011;66892;53.236;6.550;2023-03-03T06:50:41;2.25;;;1.33;;
77724;SDS011;66892;53.236;6.550;2023-03-03T06:53:10;2.25;;;1.30;;
77724;SDS011;66892;53.236;6.550;2023-03-03T06:55:37;1.98;;;1.30;;
77724;SDS011;66892;53.236;6.550;2023-03-03T06:58:04;2.30;;;1.50;;
77724;SDS011;66892;53.236;6.550;2023-03-03T07:00:39;2.10;;;1.27;;
77724;SDS011;66892;53.236;6.550;2023-03-03T07:03:07;2.20;;;1.42;;
77724;SDS011;66892;53.236;6.550;2023-03-03T07:05:37;2.50;;;1.50;;
77724;SDS011;66892;53.236;6.550;2023-03-03T07:08:05;2.42;;;1.40;;
77724;SDS011;66892;53.236;6.550;2023-03-03T07:10:34;2.13;;;1.42;;
77724;SDS011;66892;53.236;6.550;2023-03-03T07:13:02;2.75;;;1.30;;
77724;SDS011;66892;53.236;6.550;2023-03-03T07:15:39;2.30;;;1.40;;
77724;SDS011;66892;53.236;6.550;2023-03-03T07:18:05;2.33;;;1.70;;
77724;SDS011;66892;53.236;6.550;2023-03-03T07:20:47;1.80;;;1.10;;
77724;SDS011;66892;53.236;6.550;2023-03-03T07:23:14;2.38;;;1.67;;
77724;SDS011;66892;53.236;6.550;2023-03-03T07:28:13;2.38;;;1.40;;
77724;SDS011;66892;53.236;6.550;2023-03-03T07:30:48;2.15;;;1.20;;
77724;SDS011;66892;53.236;6.550;2023-03-03T07:33:18;2.38;;;1.50;;
77724;SDS011;66892;53.236;6.550;2023-03-03T07:35:50;2.63;;;1.58;;
77724;SDS011;66892;53.236;6.550;2023-03-03T07:38:20;2.38;;;1.30;;
77724;SDS011;66892;53.236;6.550;2023-03-03T07:40:50;1.88;;;1.27;;
77724;SDS011;66892;53.236;6.550;2023-03-03T07:43:25;2.05;;;1.20;;
77724;SDS011;66892;53.236;6.550;2023-03-03T07:45:58;2.45;;;1.33;;
77724;SDS011;66892;53.236;6.550;2023-03-03T07:48:29;2.50;;;1.42;;
77724;SDS011;66892;53.236;6.550;2023-03-03T07:51:03;1.77;;;1.20;;
77724;SDS011;66892;53.236;6.550;2023-03-03T07:53:36;2.05;;;1.10;;
77724;SDS011;66892;53.236;6.550;2023-03-03T07:56:06;2.10;;;1.10;;
77724;SDS011;66892;53.236;6.550;2023-03-03T07:58:51;2.33;;;1.30;;
77724;SDS011;66892;53.236;6.550;2023-03-03T08:01:25;2.05;;;1.25;;
77724;SDS011;66892;53.236;6.550;2023-03-03T08:03:56;1.77;;;1.10;;
77724;SDS011;66892;53.236;6.550;2023-03-03T08:06:30;2.22;;;1.20;;
77724;SDS011;66892;53.236;6.550;2023-03-03T08:09:15;1.88;;;1.20;;
77724;SDS011;66892;53.236;6.550;2023-03-03T08:11:54;2.20;;;1.30;;
77724;SDS011;66892;53.236;6.550;2023-03-03T08:14:25;1.75;;;1.13;;
77724;SDS011;66892;53.236;6.550;2023-03-03T08:16:56;2.33;;;1.10;;
77724;SDS011;66892;53.236;6.550;2023-03-03T08:19:23;2.00;;;1.40;;
77724;SDS011;66892;53.236;6.550;2023-03-03T08:21:49;1.92;;;1.20;;
77724;SDS011;66892;53.236;6.550;2023-03-03T08:24:16;1.80;;;0.82;;
77724;SDS011;66892;53.236;6.550;2023-03-03T08:26:42;1.95;;;1.20;;
77724;SDS011;66892;53.236;6.550;2023-03-03T08:29:09;1.88;;;1.10;;
77724;SDS011;66892;53.236;6.550;2023-03-03T08:31:36;1.75;;;1.05;;
77724;SDS011;66892;53.236;6.550;2023-03-03T08:34:04;1.95;;;1.20;;
77724;SDS011;66892;53.236;6.550;2023-03-03T08:36:30;1.88;;;1.50;;
77724;SDS011;66892;53.236;6.550;2023-03-03T08:38:56;1.85;;;1.15;;
77724;SDS011;66892;53.236;6.550;2023-03-03T08:41:22;2.17;;;1.38;;
77724;SDS011;66892;53.236;6.550;2023-03-03T08:43:48;1.75;;;1.17;;
77724;SDS011;66892;53.236;6.550;2023-03-03T08:46:14;1.92;;;1.10;;
77724;SDS011;66892;53.236;6.550;2023-03-03T08:48:40;1.73;;;1.00;;
77724;SDS011;66892;53.236;6.550;2023-03-03T08:51:08;1.80;;;1.17;;
77724;SDS011;66892;53.236;6.550;2023-03-03T08:53:34;1.95;;;1.20;;
77724;SDS011;66892;53.236;6.550;2023-03-03T08:56:02;1.98;;;1.10;;
77724;SDS011;66892;53.236;6.550;2023-03-03T08:58:29;1.85;;;1.30;;
77724;SDS011;66892;53.236;6.550;2023-03-03T09:00:55;1.95;;;1.20;;
77724;SDS011;66892;53.236;6.550;2023-03-03T09:03:23;2.42;;;1.10;;
77724;SDS011;66892;53.236;6.550;2023-03-03T09:05:49;1.85;;;1.10;;
77724;SDS011;66892;53.236;6.550;2023-03-03T09:08:17;1.55;;;1.13;;
77724;SDS011;66892;53.236;6.550;2023-03-03T09:10:43;1.55;;;0.98;;
77724;SDS011;66892;53.236;6.550;2023-03-03T09:13:11;2.15;;;1.15;;
77724;SDS011;66892;53.236;6.550;2023-03-03T09:15:39;1.95;;;1.20;;
77724;SDS011;66892;53.236;6.550;2023-03-03T09:18:10;2.00;;;1.08;;
77724;SDS011;66892;53.236;6.550;2023-03-03T09:20:40;1.25;;;0.88;;
77724;SDS011;66892;53.236;6.550;2023-03-03T09:23:20;1.27;;;1.00;;
77724;SDS011;66892;53.236;6.550;2023-03-03T09:25:55;1.65;;;1.15;;
77724;SDS011;66892;53.236;6.550;2023-03-03T09:28:23;1.35;;;1.00;;
77724;SDS011;66892;53.236;6.550;2023-03-03T09:30:51;1.33;;;0.90;;
77724;SDS011;66892;53.236;6.550;2023-03-03T09:33:20;1.58;;;1.02;;
77724;SDS011;66892;53.236;6.550;2023-03-03T09:35:49;2.75;;;1.23;;
77724;SDS011;66892;53.236;6.550;2023-03-03T09:38:28;1.55;;;1.00;;
77724;SDS011;66892;53.236;6.550;2023-03-03T09:41:03;1.63;;;1.00;;
77724;SDS011;66892;53.236;6.550;2023-03-03T09:44:04;1.48;;;0.95;;
77724;SDS011;66892;53.236;6.550;2023-03-03T09:46:58;1.25;;;0.98;;
77724;SDS011;66892;53.236;6.550;2023-03-03T09:49:34;1.90;;;1.13;;
77724;SDS011;66892;53.236;6.550;2023-03-03T09:52:10;1.58;;;1.08;;
77724;SDS011;66892;53.236;6.550;2023-03-03T09:54:51;1.20;;;0.82;;
77724;SDS011;66892;53.236;6.550;2023-03-03T09:57:24;1.67;;;0.93;;
77724;SDS011;66892;53.236;6.550;2023-03-03T10:00:03;1.25;;;0.90;;
77724;SDS011;66892;53.236;6.550;2023-03-03T10:02:43;1.20;;;0.82;;
77724;SDS011;66892;53.236;6.550;2023-03-03T10:05:20;1.17;;;1.02;;
77724;SDS011;66892;53.236;6.550;2023-03-03T10:08:02;1.88;;;1.10;;
77724;SDS011;66892;53.236;6.550;2023-03-03T10:10:55;1.52;;;0.85;;
77724;SDS011;66892;53.236;6.550;2023-03-03T10:13:35;1.02;;;0.70;;
77724;SDS011;66892;53.236;6.550;2023-03-03T10:16:12;1.33;;;0.90;;
77724;SDS011;66892;53.236;6.550;2023-03-03T10:18:48;1.90;;;1.00;;
77724;SDS011;66892;53.236;6.550;2023-03-03T10:21:22;0.93;;;0.70;;
77724;SDS011;66892;53.236;6.550;2023-03-03T10:23:54;1.15;;;0.70;;
77724;SDS011;66892;53.236;6.550;2023-03-03T10:26:30;1.25;;;0.85;;
77724;SDS011;66892;53.236;6.550;2023-03-03T10:29:12;1.00;;;0.65;;
77724;SDS011;66892;53.236;6.550;2023-03-03T10:31:51;1.60;;;0.90;;
77724;SDS011;66892;53.236;6.550;2023-03-03T10:34:30;0.95;;;0.60;;
77724;SDS011;66892;53.236;6.550;2023-03-03T10:37:12;0.98;;;0.70;;
77724;SDS011;66892;53.236;6.550;2023-03-03T10:39:49;0.85;;;0.70;;
77724;SDS011;66892;53.236;6.550;2023-03-03T10:42:34;1.63;;;0.90;;
77724;SDS011;66892;53.236;6.550;2023-03-03T10:45:34;0.82;;;0.60;;
77724;SDS011;66892;53.236;6.550;2023-03-03T10:48:26;0.75;;;0.55;;
77724;SDS011;66892;53.236;6.550;2023-03-03T10:51:06;0.73;;;0.60;;
77724;SDS011;66892;53.236;6.550;2023-03-03T10:53:45;0.82;;;0.70;;
77724;SDS011;66892;53.236;6.550;2023-03-03T10:56:27;1.65;;;0.90;;
77724;SDS011;66892;53.236;6.550;2023-03-03T10:59:08;0.65;;;0.50;;
77724;SDS011;66892;53.236;6.550;2023-03-03T11:01:46;0.75;;;0.65;;
77724;SDS011;66892;53.236;6.550;2023-03-03T11:07:08;0.95;;;0.60;;
77724;SDS011;66892;53.236;6.550;2023-03-03T11:09:48;0.93;;;0.50;;
77724;SDS011;66892;53.236;6.550;2023-03-03T11:12:28;1.27;;;0.60;;
77724;SDS011;66892;53.236;6.550;2023-03-03T11:15:18;0.95;;;0.60;;
77724;SDS011;66892;53.236;6.550;2023-03-03T11:17:56;0.60;;;0.57;;
77724;SDS011;66892;53.236;6.550;2023-03-03T11:20:34;0.50;;;0.50;;
77724;SDS011;66892;53.236;6.550;2023-03-03T11:23:09;0.88;;;0.68;;
77724;SDS011;66892;53.236;6.550;2023-03-03T11:25:52;0.85;;;0.57;;
77724;SDS011;66892;53.236;6.550;2023-03-03T11:28:30;1.10;;;0.70;;
77724;SDS011;66892;53.236;6.550;2023-03-03T11:31:15;1.00;;;0.60;;
77724;SDS011;66892;53.236;6.550;2023-03-03T11:33:52;1.45;;;0.85;;
77724;SDS011;66892;53.236;6.550;2023-03-03T11:36:26;1.38;;;0.70;;
77724;SDS011;66892;53.236;6.550;2023-03-03T11:38:56;0.82;;;0.57;;
77724;SDS011;66892;53.236;6.550;2023-03-03T11:41:31;1.23;;;0.80;;
77724;SDS011;66892;53.236;6.550;2023-03-03T11:44:05;0.57;;;0.40;;
77724;SDS011;66892;53.236;6.550;2023-03-03T11:46:43;0.75;;;0.60;;
77724;SDS011;66892;53.236;6.550;2023-03-03T11:49:13;1.35;;;0.73;;
77724;SDS011;66892;53.236;6.550;2023-03-03T11:51:49;0.65;;;0.55;;
77724;SDS011;66892;53.236;6.550;2023-03-03T11:54:21;1.02;;;0.70;;
77724;SDS011;66892;53.236;6.550;2023-03-03T11:56:50;0.55;;;0.50;;
77724;SDS011;66892;53.236;6.550;2023-03-03T12:02:17;0.82;;;0.50;;
77724;SDS011;66892;53.236;6.550;2023-03-03T12:05:09;1.33;;;0.77;;
77724;SDS011;66892;53.236;6.550;2023-03-03T12:07:41;1.05;;;0.60;;
77724;SDS011;66892;53.236;6.550;2023-03-03T12:10:21;0.55;;;0.47;;
77724;SDS011;66892;53.236;6.550;2023-03-03T12:12:54;0.77;;;0.60;;
77724;SDS011;66892;53.236;6.550;2023-03-03T12:15:29;1.25;;;0.68;;
77724;SDS011;66892;53.236;6.550;2023-03-03T12:18:17;1.17;;;0.70;;
77724;SDS011;66892;53.236;6.550;2023-03-03T12:20:50;1.20;;;0.63;;
77724;SDS011;66892;53.236;6.550;2023-03-03T12:23:40;1.35;;;0.60;;
77724;SDS011;66892;53.236;6.550;2023-03-03T12:26:18;1.17;;;0.80;;
77724;SDS011;66892;53.236;6.550;2023-03-03T12:28:51;1.27;;;0.60;;
77724;SDS011;66892;53.236;6.550;2023-03-03T12:31:26;1.23;;;0.70;;
77724;SDS011;66892;53.236;6.550;2023-03-03T12:34:01;1.95;;;0.88;;
77724;SDS011;66892;53.236;6.550;2023-03-03T12:36:41;1.83;;;1.10;;
77724;SDS011;66892;53.236;6.550;2023-03-03T12:39:18;2.80;;;0.75;;
77724;SDS011;66892;53.236;6.550;2023-03-03T12:41:57;1.35;;;0.88;;
77724;SDS011;66892;53.236;6.550;2023-03-03T12:44:32;1.33;;;0.80;;
77724;SDS011;66892;53.236;6.550;2023-03-03T12:47:07;0.88;;;0.63;;
77724;SDS011;66892;53.236;6.550;2023-03-03T12:49:45;1.55;;;0.70;;
77724;SDS011;66892;53.236;6.550;2023-03-03T12:52:25;1.60;;;0.82;;
77724;SDS011;66892;53.236;6.550;2023-03-03T12:55:01;1.73;;;0.70;;
77724;SDS011;66892;53.236;6.550;2023-03-03T12:57:37;2.08;;;0.80;;
77724;SDS011;66892;53.236;6.550;2023-03-03T13:03:04;1.38;;;0.85;;
77724;SDS011;66892;53.236;6.550;2023-03-03T13:05:42;2.00;;;0.88;;
77724;SDS011;66892;53.236;6.550;2023-03-03T13:08:24;2.58;;;0.80;;
77724;SDS011;66892;53.236;6.550;2023-03-03T13:10:58;1.92;;;0.70;;
77724;SDS011;66892;53.236;6.550;2023-03-03T13:13:36;1.60;;;0.80;;
77724;SDS011;66892;53.236;6.550;2023-03-03T13:16:09;1.85;;;0.77;;
77724;SDS011;66892;53.236;6.550;2023-03-03T13:18:43;2.08;;;0.77;;
77724;SDS011;66892;53.236;6.550;2023-03-03T13:21:20;1.67;;;0.80;;
77724;SDS011;66892;53.236;6.550;2023-03-03T13:23:52;1.58;;;0.77;;
77724;SDS011;66892;53.236;6.550;2023-03-03T13:26:24;2.22;;;0.73;;
77724;SDS011;66892;53.236;6.550;2023-03-03T13:28:55;1.90;;;0.80;;
77724;SDS011;66892;53.236;6.550;2023-03-03T13:31:28;2.47;;;1.10;;
77724;SDS011;66892;53.236;6.550;2023-03-03T13:33:58;2.03;;;1.00;;
77724;SDS011;66892;53.236;6.550;2023-03-03T13:36:29;2.10;;;0.73;;
77724;SDS011;66892;53.236;6.550;2023-03-03T13:39:01;2.22;;;0.77;;
77724;SDS011;66892;53.236;6.550;2023-03-03T13:41:38;1.83;;;0.80;;
77724;SDS011;66892;53.236;6.550;2023-03-03T13:44:10;1.42;;;0.85;;
77724;SDS011;66892;53.236;6.550;2023-03-03T13:46:40;1.80;;;0.90;;
77724;SDS011;66892;53.236;6.550;2023-03-03T13:49:21;2.63;;;0.93;;
77724;SDS011;66892;53.236;6.550;2023-03-03T13:51:59;1.58;;;0.80;;
77724;SDS011;66892;53.236;6.550;2023-03-03T13:54:35;2.25;;;0.98;;
77724;SDS011;66892;53.236;6.550;2023-03-03T13:57:17;2.58;;;0.88;;
77724;SDS011;66892;53.236;6.550;2023-03-03T13:59:55;2.13;;;1.13;;
77724;SDS011;66892;53.236;6.550;2023-03-03T14:02:39;1.38;;;0.68;;
77724;SDS011;66892;53.236;6.550;2023-03-03T14:05:12;2.13;;;1.00;;
77724;SDS011;66892;53.236;6.550;2023-03-03T14:07:41;2.28;;;0.85;;
77724;SDS011;66892;53.236;6.550;2023-03-03T14:10:17;2.15;;;0.85;;
77724;SDS011;66892;53.236;6.550;2023-03-03T14:12:46;2.10;;;0.95;;
77724;SDS011;66892;53.236;6.550;2023-03-03T14:15:17;2.60;;;0.90;;
77724;SDS011;66892;53.236;6.550;2023-03-03T14:17:54;2.47;;;0.95;;
77724;SDS011;66892;53.236;6.550;2023-03-03T14:20:31;2.80;;;1.10;;
77724;SDS011;66892;53.236;6.550;2023-03-03T14:23:06;2.03;;;0.88;;
77724;SDS011;66892;53.236;6.550;2023-03-03T14:25:49;2.30;;;0.85;;
77724;SDS011;66892;53.236;6.550;2023-03-03T14:28:18;2.80;;;1.13;;
77724;SDS011;66892;53.236;6.550;2023-03-03T14:30:45;2.83;;;1.30;;
77724;SDS011;66892;53.236;6.550;2023-03-03T14:33:17;2.22;;;0.88;;
77724;SDS011;66892;53.236;6.550;2023-03-03T14:35:48;1.98;;;0.70;;
77724;SDS011;66892;53.236;6.550;2023-03-03T14:38:35;1.98;;;1.10;;
77724;SDS011;66892;53.236;6.550;2023-03-03T14:41:07;1.70;;;0.90;;
77724;SDS011;66892;53.236;6.550;2023-03-03T14:43:38;2.10;;;0.95;;
77724;SDS011;66892;53.236;6.550;2023-03-03T14:46:28;2.10;;;1.00;;
77724;SDS011;66892;53.236;6.550;2023-03-03T14:48:58;2.50;;;1.00;;
77724;SDS011;66892;53.236;6.550;2023-03-03T14:51:26;2.17;;;0.82;;
77724;SDS011;66892;53.236;6.550;2023-03-03T14:53:56;2.13;;;0.95;;
77724;SDS011;66892;53.236;6.550;2023-03-03T14:56:23;2.42;;;0.95;;
77724;SDS011;66892;53.236;6.550;2023-03-03T14:58:51;3.80;;;1.00;;
77724;SDS011;66892;53.236;6.550;2023-03-03T15:01:23;2.28;;;1.00;;
77724;SDS011;66892;53.236;6.550;2023-03-03T15:06:33;2.70;;;1.00;;
77724;SDS011;66892;53.236;6.550;2023-03-03T15:12:18;2.50;;;1.40;;
77724;SDS011;66892;53.236;6.550;2023-03-03T15:14:48;2.45;;;1.10;;
77724;SDS011;66892;53.236;6.550;2023-03-03T15:17:19;2.15;;;1.00;;
77724;SDS011;66892;53.236;6.550;2023-03-03T15:19:57;1.35;;;0.68;;
77724;SDS011;66892;53.236;6.550;2023-03-03T15:22:41;2.28;;;1.00;;
77724;SDS011;66892;53.236;6.550;2023-03-03T15:25:16;2.53;;;1.20;;
77724;SDS011;66892;53.236;6.550;2023-03-03T15:27:56;2.58;;;1.10;;
77724;SDS011;66892;53.236;6.550;2023-03-03T15:30:35;2.28;;;1.00;;